sensor_id;sensor_type;location;lat;lon;timestamp;P1;durP1;ratioP1;P2;durP2;ratioP2
12912;SDS011;6524;51.368;11.984;2023-07-16T02:41:37;4.22;;;3.22;;
12912;SDS011;6524;51.368;11.984;2023-07-16T04:04:11;3.80;;;3.38;;
12912;SDS011;6524;51.368;11.984;2023-07-16T04:09:11;5.05;;;3.50;;
12912;SDS011;6524;51.368;11.984;2023-07-16T04:14:11;3.97;;;3.58;;
12912;SDS011;6524;51.368;11.984;2023-07-16T04:19:11;4.25;;;3.60;;
12912;SDS011;6524;51.368;11.984;2023-07-16T04:24:12;3.90;;;3.50;;
12912;SDS011;6524;51.368;11.984;2023-07-16T04:29:12;4.60;;;3.70;;
12912;SDS011;6524;51.368;11.984;2023-07-16T04:34:12;3.65;;;3.10;;
12912;SDS011;6524;51.368;11.984;2023-07-16T04:39:13;4.35;;;3.30;;
12912;SDS011;6524;51.368;11.984;2023-07-16T04:44:13;4.10;;;3.00;;
12912;SDS011;6524;51.368;11.984;2023-07-16T04:49:13;4.68;;;3.53;;
12912;SDS011;6524;51.368;11.984;2023-07-16T04:54:14;3.20;;;2.97;;
12912;SDS011;6524;51.368;11.984;2023-07-16T04:59:14;3.40;;;3.10;;
12912;SDS011;6524;51.368;11.984;2023-07-16T05:04:14;3.17;;;2.90;;
12912;SDS011;6524;51.368;11.984;2023-07-16T05:09:14;4.45;;;3.45;;
12912;SDS011;6524;51.368;11.984;2023-07-16T05:14:15;4.13;;;3.23;;
12912;SDS011;6524;51.368;11.984;2023-07-16T05:19:15;4.85;;;3.00;;
12912;SDS011;6524;51.368;11.984;2023-07-16T05:24:15;4.22;;;3.13;;
12912;SDS011;6524;51.368;11.984;2023-07-16T05:29:16;5.03;;;2.70;;
12912;SDS011;6524;51.368;11.984;2023-07-16T05:34:16;2.90;;;2.70;;
12912;SDS011;6524;51.368;11.984;2023-07-16T05:39:16;3.57;;;2.73;;
12912;SDS011;6524;51.368;11.984;2023-07-16T05:44:17;4.18;;;2.70;;
12912;SDS011;6524;51.368;11.984;2023-07-16T05:49:17;4.05;;;2.80;;
12912;SDS011;6524;51.368;11.984;2023-07-16T05:54:18;3.15;;;2.75;;
12912;SDS011;6524;51.368;11.984;2023-07-16T05:59:18;3.13;;;2.60;;
12912;SDS011;6524;51.368;11.984;2023-07-16T06:04:19;2.65;;;2.40;;
12912;SDS011;6524;51.368;11.984;2023-07-16T06:09:19;2.92;;;2.63;;
12912;SDS011;6524;51.368;11.984;2023-07-16T06:14:20;4.80;;;2.70;;
12912;SDS011;6524;51.368;11.984;2023-07-16T06:19:20;3.10;;;2.63;;
12912;SDS011;6524;51.368;11.984;2023-07-16T06:24:21;5.88;;;2.40;;
12912;SDS011;6524;51.368;11.984;2023-07-16T06:29:21;2.75;;;2.35;;
12912;SDS011;6524;51.368;11.984;2023-07-16T06:34:25;3.70;;;2.30;;
12912;SDS011;6524;51.368;11.984;2023-07-16T06:39:25;23.88;;;8.13;;
12912;SDS011;6524;51.368;11.984;2023-07-16T06:44:26;32.67;;;9.55;;
12912;SDS011;6524;51.368;11.984;2023-07-16T06:49:26;6.88;;;3.03;;
12912;SDS011;6524;51.368;11.984;2023-07-16T06:54:27;3.60;;;2.28;;
12912;SDS011;6524;51.368;11.984;2023-07-16T06:59:28;5.35;;;2.50;;
12912;SDS011;6524;51.368;11.984;2023-07-16T07:04:28;3.78;;;2.60;;
12912;SDS011;6524;51.368;11.984;2023-07-16T07:09:29;4.57;;;2.65;;
12912;SDS011;6524;51.368;11.984;2023-07-16T07:14:29;3.20;;;2.58;;
12912;SDS011;6524;51.368;11.984;2023-07-16T07:19:30;3.97;;;2.70;;
12912;SDS011;6524;51.368;11.984;2023-07-16T07:24:32;4.65;;;2.72;;
12912;SDS011;6524;51.368;11.984;2023-07-16T07:29:32;4.00;;;2.40;;
12912;SDS011;6524;51.368;11.984;2023-07-16T07:34:33;4.05;;;2.45;;
12912;SDS011;6524;51.368;11.984;2023-07-16T07:39:34;4.88;;;2.50;;
12912;SDS011;6524;51.368;11.984;2023-07-16T07:44:34;3.88;;;2.33;;
12912;SDS011;6524;51.368;11.984;2023-07-16T07:49:35;3.95;;;2.92;;
12912;SDS011;6524;51.368;11.984;2023-07-16T07:54:35;3.58;;;2.20;;
12912;SDS011;6524;51.368;11.984;2023-07-16T07:59:36;6.13;;;2.15;;
12912;SDS011;6524;51.368;11.984;2023-07-16T08:04:36;4.75;;;2.60;;
12912;SDS011;6524;51.368;11.984;2023-07-16T08:09:37;3.47;;;2.40;;
12912;SDS011;6524;51.368;11.984;2023-07-16T08:14:37;3.55;;;2.20;;
12912;SDS011;6524;51.368;11.984;2023-07-16T08:19:38;3.28;;;2.25;;
12912;SDS011;6524;51.368;11.984;2023-07-16T08:24:39;3.58;;;2.08;;
12912;SDS011;6524;51.368;11.984;2023-07-16T08:29:40;3.38;;;2.15;;
12912;SDS011;6524;51.368;11.984;2023-07-16T08:34:40;3.85;;;2.40;;
12912;SDS011;6524;51.368;11.984;2023-07-16T08:39:41;2.78;;;2.17;;
12912;SDS011;6524;51.368;11.984;2023-07-16T08:44:42;3.00;;;2.10;;
12912;SDS011;6524;51.368;11.984;2023-07-16T08:49:44;4.10;;;2.80;;
12912;SDS011;6524;51.368;11.984;2023-07-16T08:54:56;3.75;;;2.80;;
12912;SDS011;6524;51.368;11.984;2023-07-16T08:59:57;4.53;;;2.40;;
12912;SDS011;6524;51.368;11.984;2023-07-16T09:04:59;3.38;;;2.30;;
12912;SDS011;6524;51.368;11.984;2023-07-16T09:10:16;3.28;;;2.55;;
12912;SDS011;6524;51.368;11.984;2023-07-16T09:15:18;3.15;;;2.40;;
12912;SDS011;6524;51.368;11.984;2023-07-16T09:20:23;3.15;;;2.40;;
12912;SDS011;6524;51.368;11.984;2023-07-16T09:31:07;3.22;;;2.22;;
12912;SDS011;6524;51.368;11.984;2023-07-16T09:36:07;4.35;;;2.33;;
12912;SDS011;6524;51.368;11.984;2023-07-16T09:41:08;2.58;;;2.22;;
12912;SDS011;6524;51.368;11.984;2023-07-16T09:46:09;4.07;;;2.40;;
12912;SDS011;6524;51.368;11.984;2023-07-16T09:51:11;3.33;;;2.10;;
12912;SDS011;6524;51.368;11.984;2023-07-16T09:56:12;3.70;;;2.28;;
12912;SDS011;6524;51.368;11.984;2023-07-16T10:01:13;3.83;;;2.60;;
12912;SDS011;6524;51.368;11.984;2023-07-16T10:06:14;4.07;;;2.63;;
12912;SDS011;6524;51.368;11.984;2023-07-16T10:11:16;2.22;;;1.83;;
12912;SDS011;6524;51.368;11.984;2023-07-16T10:16:21;5.75;;;2.50;;
12912;SDS011;6524;51.368;11.984;2023-07-16T10:21:25;3.90;;;2.10;;
12912;SDS011;6524;51.368;11.984;2023-07-16T10:26:27;4.60;;;2.03;;
12912;SDS011;6524;51.368;11.984;2023-07-16T10:31:32;4.25;;;2.83;;
12912;SDS011;6524;51.368;11.984;2023-07-16T10:36:39;3.45;;;2.10;;
12912;SDS011;6524;51.368;11.984;2023-07-16T10:41:40;5.20;;;2.58;;
12912;SDS011;6524;51.368;11.984;2023-07-16T10:46:41;3.22;;;2.17;;
12912;SDS011;6524;51.368;11.984;2023-07-16T10:51:42;3.75;;;2.00;;
12912;SDS011;6524;51.368;11.984;2023-07-16T10:56:43;2.75;;;2.10;;
12912;SDS011;6524;51.368;11.984;2023-07-16T11:01:43;3.67;;;2.38;;
12912;SDS011;6524;51.368;11.984;2023-07-16T11:06:44;3.63;;;2.63;;
12912;SDS011;6524;51.368;11.984;2023-07-16T11:11:45;3.50;;;2.33;;
12912;SDS011;6524;51.368;11.984;2023-07-16T11:16:45;2.47;;;2.27;;
12912;SDS011;6524;51.368;11.984;2023-07-16T11:21:47;3.90;;;2.20;;
12912;SDS011;6524;51.368;11.984;2023-07-16T11:26:51;3.53;;;2.42;;
12912;SDS011;6524;51.368;11.984;2023-07-16T11:31:52;3.92;;;2.80;;
12912;SDS011;6524;51.368;11.984;2023-07-16T11:36:53;2.90;;;2.60;;
12912;SDS011;6524;51.368;11.984;2023-07-16T11:41:54;5.07;;;2.63;;
12912;SDS011;6524;51.368;11.984;2023-07-16T11:46:58;3.28;;;2.60;;
12912;SDS011;6524;51.368;11.984;2023-07-16T11:51:59;3.78;;;2.70;;
12912;SDS011;6524;51.368;11.984;2023-07-16T11:56:59;4.50;;;2.88;;
12912;SDS011;6524;51.368;11.984;2023-07-16T12:02:00;4.85;;;3.08;;
12912;SDS011;6524;51.368;11.984;2023-07-16T12:07:00;3.63;;;2.97;;
12912;SDS011;6524;51.368;11.984;2023-07-16T12:12:01;3.55;;;2.60;;
12912;SDS011;6524;51.368;11.984;2023-07-16T12:17:02;6.00;;;2.67;;
12912;SDS011;6524;51.368;11.984;2023-07-16T12:22:03;3.42;;;2.55;;
12912;SDS011;6524;51.368;11.984;2023-07-16T12:27:03;3.60;;;2.58;;
12912;SDS011;6524;51.368;11.984;2023-07-16T12:32:04;4.38;;;3.13;;
12912;SDS011;6524;51.368;11.984;2023-07-16T12:37:05;3.67;;;2.70;;
12912;SDS011;6524;51.368;11.984;2023-07-16T12:42:07;4.22;;;2.75;;
12912;SDS011;6524;51.368;11.984;2023-07-16T12:47:07;3.28;;;2.65;;
12912;SDS011;6524;51.368;11.984;2023-07-16T12:52:10;2.58;;;2.38;;
12912;SDS011;6524;51.368;11.984;2023-07-16T12:57:11;3.92;;;2.83;;
12912;SDS011;6524;51.368;11.984;2023-07-16T13:02:11;3.22;;;2.80;;
12912;SDS011;6524;51.368;11.984;2023-07-16T13:07:12;6.38;;;2.80;;
12912;SDS011;6524;51.368;11.984;2023-07-16T13:12:13;3.92;;;2.83;;
12912;SDS011;6524;51.368;11.984;2023-07-16T13:17:13;3.97;;;2.90;;
12912;SDS011;6524;51.368;11.984;2023-07-16T13:22:15;3.55;;;2.85;;
12912;SDS011;6524;51.368;11.984;2023-07-16T13:27:19;3.88;;;2.92;;
12912;SDS011;6524;51.368;11.984;2023-07-16T13:32:23;3.20;;;2.90;;
12912;SDS011;6524;51.368;11.984;2023-07-16T13:37:25;3.10;;;2.80;;
12912;SDS011;6524;51.368;11.984;2023-07-16T13:42:26;4.25;;;3.00;;
12912;SDS011;6524;51.368;11.984;2023-07-16T13:47:26;3.63;;;2.90;;
12912;SDS011;6524;51.368;11.984;2023-07-16T13:52:27;6.25;;;3.15;;
12912;SDS011;6524;51.368;11.984;2023-07-16T13:57:27;5.07;;;3.17;;
12912;SDS011;6524;51.368;11.984;2023-07-16T14:02:28;4.33;;;3.30;;
12912;SDS011;6524;51.368;11.984;2023-07-16T14:07:29;3.58;;;2.90;;
12912;SDS011;6524;51.368;11.984;2023-07-16T14:12:29;3.72;;;3.28;;
12912;SDS011;6524;51.368;11.984;2023-07-16T14:17:30;4.65;;;3.22;;
12912;SDS011;6524;51.368;11.984;2023-07-16T14:22:31;4.63;;;2.97;;
12912;SDS011;6524;51.368;11.984;2023-07-16T14:27:31;4.30;;;3.30;;
12912;SDS011;6524;51.368;11.984;2023-07-16T14:32:33;4.03;;;3.20;;
12912;SDS011;6524;51.368;11.984;2023-07-16T14:37:33;4.15;;;3.10;;
12912;SDS011;6524;51.368;11.984;2023-07-16T14:42:34;4.63;;;3.80;;
12912;SDS011;6524;51.368;11.984;2023-07-16T14:47:34;5.00;;;4.50;;
12912;SDS011;6524;51.368;11.984;2023-07-16T14:52:35;3.70;;;3.30;;
12912;SDS011;6524;51.368;11.984;2023-07-16T14:57:36;6.25;;;3.95;;
12912;SDS011;6524;51.368;11.984;2023-07-16T15:02:37;4.85;;;3.35;;
12912;SDS011;6524;51.368;11.984;2023-07-16T15:07:38;4.18;;;3.00;;
12912;SDS011;6524;51.368;11.984;2023-07-16T15:12:38;4.97;;;3.40;;
12912;SDS011;6524;51.368;11.984;2023-07-16T15:17:39;4.93;;;3.37;;
12912;SDS011;6524;51.368;11.984;2023-07-16T15:22:39;3.83;;;3.42;;
12912;SDS011;6524;51.368;11.984;2023-07-16T15:27:40;4.65;;;3.20;;
12912;SDS011;6524;51.368;11.984;2023-07-16T15:32:40;6.18;;;4.00;;
12912;SDS011;6524;51.368;11.984;2023-07-16T15:37:40;4.00;;;3.25;;
12912;SDS011;6524;51.368;11.984;2023-07-16T15:42:42;4.40;;;3.50;;
12912;SDS011;6524;51.368;11.984;2023-07-16T15:47:43;3.55;;;3.05;;
12912;SDS011;6524;51.368;11.984;2023-07-16T15:52:44;4.72;;;3.40;;
12912;SDS011;6524;51.368;11.984;2023-07-16T15:57:44;5.40;;;3.10;;
12912;SDS011;6524;51.368;11.984;2023-07-16T16:02:46;3.40;;;3.10;;
12912;SDS011;6524;51.368;11.984;2023-07-16T16:08:11;4.38;;;3.13;;
12912;SDS011;6524;51.368;11.984;2023-07-16T16:13:15;6.53;;;5.53;;
12912;SDS011;6524;51.368;11.984;2023-07-16T16:18:16;5.10;;;3.45;;
12912;SDS011;6524;51.368;11.984;2023-07-16T16:23:17;4.20;;;3.25;;
12912;SDS011;6524;51.368;11.984;2023-07-16T16:28:17;5.35;;;3.33;;
12912;SDS011;6524;51.368;11.984;2023-07-16T16:33:17;4.80;;;3.13;;
12912;SDS011;6524;51.368;11.984;2023-07-16T16:38:18;3.53;;;3.22;;
12912;SDS011;6524;51.368;11.984;2023-07-16T16:43:18;3.70;;;3.20;;
12912;SDS011;6524;51.368;11.984;2023-07-16T16:48:18;4.63;;;3.17;;
12912;SDS011;6524;51.368;11.984;2023-07-16T16:53:19;5.63;;;3.65;;
12912;SDS011;6524;51.368;11.984;2023-07-16T16:58:19;3.90;;;3.28;;
12912;SDS011;6524;51.368;11.984;2023-07-16T17:03:21;4.68;;;3.40;;
12912;SDS011;6524;51.368;11.984;2023-07-16T17:08:22;4.22;;;3.10;;
12912;SDS011;6524;51.368;11.984;2023-07-16T17:13:23;3.65;;;3.30;;
12912;SDS011;6524;51.368;11.984;2023-07-16T17:18:24;6.70;;;4.30;;
12912;SDS011;6524;51.368;11.984;2023-07-16T17:23:24;4.43;;;3.40;;
12912;SDS011;6524;51.368;11.984;2023-07-16T17:28:24;4.60;;;3.30;;
12912;SDS011;6524;51.368;11.984;2023-07-16T17:33:25;3.80;;;3.43;;
12912;SDS011;6524;51.368;11.984;2023-07-16T17:38:26;4.93;;;3.97;;
12912;SDS011;6524;51.368;11.984;2023-07-16T17:43:26;5.30;;;3.27;;
12912;SDS011;6524;51.368;11.984;2023-07-16T17:48:27;5.50;;;3.28;;
12912;SDS011;6524;51.368;11.984;2023-07-16T17:53:27;5.70;;;3.78;;
12912;SDS011;6524;51.368;11.984;2023-07-16T17:58:28;5.43;;;4.18;;
12912;SDS011;6524;51.368;11.984;2023-07-16T18:03:31;4.72;;;3.60;;
12912;SDS011;6524;51.368;11.984;2023-07-16T18:08:32;4.67;;;3.70;;
12912;SDS011;6524;51.368;11.984;2023-07-16T18:13:32;6.27;;;3.60;;
12912;SDS011;6524;51.368;11.984;2023-07-16T18:18:32;5.10;;;3.60;;
12912;SDS011;6524;51.368;11.984;2023-07-16T18:23:33;4.05;;;3.53;;
12912;SDS011;6524;51.368;11.984;2023-07-16T18:28:33;6.50;;;3.53;;
12912;SDS011;6524;51.368;11.984;2023-07-16T18:33:34;4.00;;;3.23;;
12912;SDS011;6524;51.368;11.984;2023-07-16T18:38:34;6.60;;;3.90;;
12912;SDS011;6524;51.368;11.984;2023-07-16T18:43:34;4.60;;;3.80;;
12912;SDS011;6524;51.368;11.984;2023-07-16T18:48:35;6.32;;;3.88;;
12912;SDS011;6524;51.368;11.984;2023-07-16T18:53:35;5.82;;;3.60;;
12912;SDS011;6524;51.368;11.984;2023-07-16T18:58:36;5.25;;;3.58;;
12912;SDS011;6524;51.368;11.984;2023-07-16T19:03:36;5.70;;;3.90;;
12912;SDS011;6524;51.368;11.984;2023-07-16T19:08:36;5.45;;;3.80;;
12912;SDS011;6524;51.368;11.984;2023-07-16T19:13:37;5.17;;;3.70;;
12912;SDS011;6524;51.368;11.984;2023-07-16T19:18:37;5.87;;;4.00;;
12912;SDS011;6524;51.368;11.984;2023-07-16T19:23:37;5.70;;;3.50;;
12912;SDS011;6524;51.368;11.984;2023-07-16T19:28:38;4.70;;;3.50;;
12912;SDS011;6524;51.368;11.984;2023-07-16T19:33:38;5.32;;;3.60;;
12912;SDS011;6524;51.368;11.984;2023-07-16T19:38:42;6.50;;;3.65;;
12912;SDS011;6524;51.368;11.984;2023-07-16T19:43:42;5.57;;;3.65;;
12912;SDS011;6524;51.368;11.984;2023-07-16T19:48:43;5.85;;;3.47;;
12912;SDS011;6524;51.368;11.984;2023-07-16T19:53:43;5.35;;;3.90;;
12912;SDS011;6524;51.368;11.984;2023-07-16T19:58:43;4.20;;;3.75;;
12912;SDS011;6524;51.368;11.984;2023-07-16T20:03:43;6.53;;;4.30;;
12912;SDS011;6524;51.368;11.984;2023-07-16T20:08:44;5.38;;;3.72;;
12912;SDS011;6524;51.368;11.984;2023-07-16T20:13:44;5.55;;;4.07;;
12912;SDS011;6524;51.368;11.984;2023-07-16T20:18:45;6.88;;;5.32;;
12912;SDS011;6524;51.368;11.984;2023-07-16T20:23:46;7.90;;;5.35;;
12912;SDS011;6524;51.368;11.984;2023-07-16T20:28:47;5.53;;;4.57;;
12912;SDS011;6524;51.368;11.984;2023-07-16T20:33:48;7.68;;;4.82;;
12912;SDS011;6524;51.368;11.984;2023-07-16T20:38:48;5.72;;;4.47;;
12912;SDS011;6524;51.368;11.984;2023-07-16T20:43:48;6.25;;;4.35;;
12912;SDS011;6524;51.368;11.984;2023-07-16T20:48:49;5.40;;;4.28;;
12912;SDS011;6524;51.368;11.984;2023-07-16T20:53:50;5.70;;;4.35;;
12912;SDS011;6524;51.368;11.984;2023-07-16T20:58:50;4.90;;;4.10;;
12912;SDS011;6524;51.368;11.984;2023-07-16T21:03:50;6.60;;;4.30;;
12912;SDS011;6524;51.368;11.984;2023-07-16T21:08:52;5.32;;;4.63;;
12912;SDS011;6524;51.368;11.984;2023-07-16T21:13:52;7.95;;;5.05;;
12912;SDS011;6524;51.368;11.984;2023-07-16T21:18:53;6.72;;;4.43;;
12912;SDS011;6524;51.368;11.984;2023-07-16T21:23:53;6.75;;;4.22;;
12912;SDS011;6524;51.368;11.984;2023-07-16T21:28:53;5.97;;;4.32;;
12912;SDS011;6524;51.368;11.984;2023-07-16T21:33:54;7.53;;;4.63;;
12912;SDS011;6524;51.368;11.984;2023-07-16T21:38:54;7.47;;;4.57;;
12912;SDS011;6524;51.368;11.984;2023-07-16T21:43:55;10.75;;;7.57;;
12912;SDS011;6524;51.368;11.984;2023-07-16T21:48:55;7.78;;;4.80;;
12912;SDS011;6524;51.368;11.984;2023-07-16T21:53:56;6.05;;;4.53;;
12912;SDS011;6524;51.368;11.984;2023-07-16T21:58:56;5.78;;;4.45;;
12912;SDS011;6524;51.368;11.984;2023-07-16T22:03:57;7.03;;;4.65;;
12912;SDS011;6524;51.368;11.984;2023-07-16T22:08:58;6.93;;;4.63;;
12912;SDS011;6524;51.368;11.984;2023-07-16T22:13:58;6.38;;;4.32;;
12912;SDS011;6524;51.368;11.984;2023-07-16T22:19:00;8.75;;;4.32;;
12912;SDS011;6524;51.368;11.984;2023-07-16T22:24:02;4.82;;;4.22;;
12912;SDS011;6524;51.368;11.984;2023-07-16T22:29:07;7.07;;;4.28;;
12912;SDS011;6524;51.368;11.984;2023-07-16T22:34:10;7.97;;;4.57;;
12912;SDS011;6524;51.368;11.984;2023-07-16T22:39:15;6.35;;;4.95;;
12912;SDS011;6524;51.368;11.984;2023-07-16T22:44:16;5.72;;;4.38;;
12912;SDS011;6524;51.368;11.984;2023-07-16T22:49:16;7.15;;;4.57;;
12912;SDS011;6524;51.368;11.984;2023-07-16T22:54:17;5.88;;;4.53;;
12912;SDS011;6524;51.368;11.984;2023-07-16T22:59:17;6.30;;;4.40;;
12912;SDS011;6524;51.368;11.984;2023-07-16T23:04:18;6.93;;;4.28;;
12912;SDS011;6524;51.368;11.984;2023-07-16T23:09:18;5.88;;;4.20;;
12912;SDS011;6524;51.368;11.984;2023-07-16T23:14:18;5.95;;;4.22;;
12912;SDS011;6524;51.368;11.984;2023-07-16T23:19:19;7.97;;;4.65;;
12912;SDS011;6524;51.368;11.984;2023-07-16T23:24:19;6.45;;;4.38;;
12912;SDS011;6524;51.368;11.984;2023-07-16T23:29:20;6.22;;;4.80;;
12912;SDS011;6524;51.368;11.984;2023-07-16T23:34:20;5.70;;;4.40;;
12912;SDS011;6524;51.368;11.984;2023-07-16T23:39:20;5.65;;;4.72;;
12912;SDS011;6524;51.368;11.984;2023-07-16T23:44:21;5.88;;;4.68;;
12912;SDS011;6524;51.368;11.984;2023-07-16T23:49:28;4.60;;;4.20;;
12912;SDS011;6524;51.368;11.984;2023-07-16T23:54:28;4.65;;;4.15;;
12912;SDS011;6524;51.368;11.984;2023-07-16T23:59:30;6.25;;;4.20;;
